KMUO/MUO METAR and TAF weather

Enter ICAO airport designator
Station Type Date Time Source
KMUO METAR 2021/09/24 01:58 UTC NOAA

KMUO 240158Z 29006KT 10SM FEW200 18/04 A3013 RMK AO2A SLP194 T01760042 RVRNO $


Station Type Date Time Source
KMUO Decoded METAR 2021/09/24 01:58 UTC NOAA

Mountain Home Air Force Base, ID, United States (KMUO) 43-03N 115-52W
Sep 23, 2021 - 09:58 PM EDT / 2021.09.24 0158 UTC
Wind: from the WNW (290 degrees) at 7 MPH (6 KT):0
Visibility: 10 mile(s):0
Sky conditions: mostly clear
Temperature: 63.7 F (17.6 C)
Dew Point: 39.6 F (4.2 C)
Relative Humidity: 40%
Pressure (altimeter): 30.13 in. Hg (1020 hPa)
ob: KMUO 240158Z 29006KT 10SM FEW200 18/04 A3013 RMK AO2A SLP194 T01760042 RVRNO
cycle: 2

Station Type Date Time Source
KMUO TAF 2021/09/24 02:03 UTC NOAA

TAF KMUO 240200Z 2402/2508 32012G18KT 9999 FEW120 FEW200 QNH3010INS
BECMG 2404/2405 VRB06KT 9999 FEW150 SCT200 QNH3011INS
BECMG 2412/2413 12012KT 9999 FEW090 SCT120 SCT200 QNH3015INS
BECMG 2419/2420 VRB06KT 9999 FEW200 QNH3018INS TX27/2422Z TN08/2412Z

Example: see airport list